首页
METAR-TAF:

METAR-TAF

机场 :

庫拉索國際機場

库拉索, 荷属安的列斯

纬度: 12-12N, 经度: 068-58W, 海拔: 9米

当前天气观测

该预报发布于1小时和2分钟前的01:00 UTC
风速12节,风向东转东北
温度 28°C
湿度 79%
气压 1009 hPa
能见度10公里或以上
散云层高于1800英尺

METAR: TNCC 220100Z 07012KT 9999 SCT018 28/24 Q1009 NOSIG

时间: 22:02 (02:02 UTC)

预报

该预报发布于4小时和32分钟前的21:30 UTC
预报有效从22日的 00点(UTC)到 22日的 24点(UTC)
风速10节,风向东转东北
能见度10公里或以上
散云层高于1800英尺
短暂存在
从 22日的 03点(UTC)到 22日的 16点(UTC)
能見度: 5000
多云层高于1500英尺
阵雨

TAF: TNCC 212130Z 2200/2224 07010KT 9999 SCT018 TEMPO 2203/2216 5000 SHRA BKN015

超过4000个机场的气象观测和天气预报(METAR&TAF报告)。

可查询的气象台以黄色和红色小点在地图上表示。

将鼠标移到小点上方,可查看气象台名称。

然后点击查看天气观测和预报。

如需切换地图:点击带黑十字的绿色按钮放大地图;点击带横线的绿色按钮缩小地图;或者点击绿色箭头查看邻近地区的地图。


METAR-TAF: